sensor_id;sensor_type;location;lat;lon;timestamp;pressure;altitude;pressure_sealevel;temperature;humidity
40794;BME280;26502;51.886;15.604;2023-01-26T00:02:21;101524.80;;;1.15;84.64
40794;BME280;26502;51.886;15.604;2023-01-26T00:07:30;101519.52;;;1.14;84.13
40794;BME280;26502;51.886;15.604;2023-01-26T00:12:38;101513.05;;;1.14;84.32
40794;BME280;26502;51.886;15.604;2023-01-26T00:17:45;101515.80;;;1.11;84.39
40794;BME280;26502;51.886;15.604;2023-01-26T00:22:54;101506.58;;;1.14;84.39
40794;BME280;26502;51.886;15.604;2023-01-26T00:28:03;101500.16;;;1.08;84.19
40794;BME280;26502;51.886;15.604;2023-01-26T00:33:10;101500.34;;;0.99;83.92
40794;BME280;26502;51.886;15.604;2023-01-26T00:38:17;101492.42;;;1.06;84.24
40794;BME280;26502;51.886;15.604;2023-01-26T00:43:26;101496.42;;;1.04;83.98
40794;BME280;26502;51.886;15.604;2023-01-26T00:48:33;101491.05;;;1.08;84.26
40794;BME280;26502;51.886;15.604;2023-01-26T00:53:43;101489.18;;;1.19;84.37
40794;BME280;26502;51.886;15.604;2023-01-26T00:58:51;101489.41;;;1.22;84.08
40794;BME280;26502;51.886;15.604;2023-01-26T01:04:01;101481.34;;;1.30;84.29
40794;BME280;26502;51.886;15.604;2023-01-26T01:09:09;101474.59;;;1.15;83.84
40794;BME280;26502;51.886;15.604;2023-01-26T01:14:18;101469.09;;;1.11;83.95
40794;BME280;26502;51.886;15.604;2023-01-26T01:19:26;101467.40;;;1.14;83.78
40794;BME280;26502;51.886;15.604;2023-01-26T01:24:33;101458.34;;;1.07;83.82
40794;BME280;26502;51.886;15.604;2023-01-26T01:29:42;101451.67;;;0.88;83.39
40794;BME280;26502;51.886;15.604;2023-01-26T01:34:50;101452.08;;;0.90;83.94
40794;BME280;26502;51.886;15.604;2023-01-26T01:39:58;101446.48;;;0.99;84.07
40794;BME280;26502;51.886;15.604;2023-01-26T01:45:38;101444.20;;;1.09;84.16
40794;BME280;26502;51.886;15.604;2023-01-26T01:50:47;101440.94;;;1.13;83.82
40794;BME280;26502;51.886;15.604;2023-01-26T01:55:58;101435.73;;;1.15;84.04
40794;BME280;26502;51.886;15.604;2023-01-26T02:01:08;101431.40;;;1.16;83.99
40794;BME280;26502;51.886;15.604;2023-01-26T02:06:20;101427.29;;;1.22;84.01
40794;BME280;26502;51.886;15.604;2023-01-26T02:11:32;101419.34;;;1.27;83.90
40794;BME280;26502;51.886;15.604;2023-01-26T02:16:43;101412.02;;;1.28;83.90
40794;BME280;26502;51.886;15.604;2023-01-26T02:21:49;101405.73;;;1.30;84.00
40794;BME280;26502;51.886;15.604;2023-01-26T02:26:58;101401.25;;;1.23;83.98
40794;BME280;26502;51.886;15.604;2023-01-26T02:32:07;101393.45;;;1.17;83.65
40794;BME280;26502;51.886;15.604;2023-01-26T02:37:16;101389.02;;;1.14;83.69
40794;BME280;26502;51.886;15.604;2023-01-26T02:42:23;101385.16;;;1.14;83.86
40794;BME280;26502;51.886;15.604;2023-01-26T02:47:46;101378.20;;;1.06;83.80
40794;BME280;26502;51.886;15.604;2023-01-26T02:52:54;101374.97;;;1.02;83.82
40794;BME280;26502;51.886;15.604;2023-01-26T02:58:03;101375.16;;;1.03;83.90
40794;BME280;26502;51.886;15.604;2023-01-26T03:03:15;101372.73;;;1.03;83.81
40794;BME280;26502;51.886;15.604;2023-01-26T03:08:24;101364.98;;;1.00;83.66
40794;BME280;26502;51.886;15.604;2023-01-26T03:13:31;101357.16;;;1.03;83.94
40794;BME280;26502;51.886;15.604;2023-01-26T03:18:39;101355.14;;;1.08;83.99
40794;BME280;26502;51.886;15.604;2023-01-26T03:24:04;101348.62;;;1.15;83.95
40794;BME280;26502;51.886;15.604;2023-01-26T03:29:32;101340.77;;;1.16;83.81
40794;BME280;26502;51.886;15.604;2023-01-26T03:34:41;101330.63;;;1.17;83.60
40794;BME280;26502;51.886;15.604;2023-01-26T03:39:49;101328.35;;;1.17;83.40
40794;BME280;26502;51.886;15.604;2023-01-26T03:45:14;101324.29;;;0.94;83.24
40794;BME280;26502;51.886;15.604;2023-01-26T03:50:39;101324.10;;;0.93;83.41
40794;BME280;26502;51.886;15.604;2023-01-26T03:56:05;101323.88;;;0.90;83.63
40794;BME280;26502;51.886;15.604;2023-01-26T04:01:27;101326.03;;;0.93;83.70
40794;BME280;26502;51.886;15.604;2023-01-26T04:06:41;101324.07;;;1.01;84.12
40794;BME280;26502;51.886;15.604;2023-01-26T04:12:07;101318.48;;;1.12;83.99
40794;BME280;26502;51.886;15.604;2023-01-26T04:17:26;101304.23;;;1.18;84.10
40794;BME280;26502;51.886;15.604;2023-01-26T04:22:51;101295.70;;;1.21;83.61
40794;BME280;26502;51.886;15.604;2023-01-26T04:27:59;101297.80;;;1.10;83.25
40794;BME280;26502;51.886;15.604;2023-01-26T04:33:08;101296.05;;;1.00;83.45
40794;BME280;26502;51.886;15.604;2023-01-26T04:38:15;101295.98;;;1.06;83.73
40794;BME280;26502;51.886;15.604;2023-01-26T04:43:23;101293.48;;;1.14;83.75
40794;BME280;26502;51.886;15.604;2023-01-26T04:48:31;101286.92;;;1.08;83.45
40794;BME280;26502;51.886;15.604;2023-01-26T04:53:39;101281.46;;;1.06;83.30
40794;BME280;26502;51.886;15.604;2023-01-26T04:58:47;101282.46;;;1.03;83.59
40794;BME280;26502;51.886;15.604;2023-01-26T05:03:55;101279.52;;;1.04;83.59
40794;BME280;26502;51.886;15.604;2023-01-26T05:09:06;101268.77;;;1.10;83.76
40794;BME280;26502;51.886;15.604;2023-01-26T05:14:15;101268.02;;;0.97;83.47
40794;BME280;26502;51.886;15.604;2023-01-26T05:19:46;101270.64;;;0.96;83.83
40794;BME280;26502;51.886;15.604;2023-01-26T05:25:16;101270.65;;;0.97;83.63
40794;BME280;26502;51.886;15.604;2023-01-26T05:30:31;101277.74;;;0.93;83.48
40794;BME280;26502;51.886;15.604;2023-01-26T05:35:41;101279.92;;;0.87;83.64
40794;BME280;26502;51.886;15.604;2023-01-26T05:40:49;101283.31;;;0.91;83.81
40794;BME280;26502;51.886;15.604;2023-01-26T05:45:56;101282.05;;;0.99;83.80
40794;BME280;26502;51.886;15.604;2023-01-26T05:51:04;101277.91;;;1.03;83.93
40794;BME280;26502;51.886;15.604;2023-01-26T05:56:14;101273.14;;;1.01;83.37
40794;BME280;26502;51.886;15.604;2023-01-26T06:01:28;101268.80;;;0.91;83.53
40794;BME280;26502;51.886;15.604;2023-01-26T06:06:39;101267.39;;;0.91;83.75
40794;BME280;26502;51.886;15.604;2023-01-26T06:12:09;101268.61;;;1.01;83.78
40794;BME280;26502;51.886;15.604;2023-01-26T06:17:46;101266.70;;;0.91;83.58
40794;BME280;26502;51.886;15.604;2023-01-26T06:22:59;101266.61;;;0.75;83.42
40794;BME280;26502;51.886;15.604;2023-01-26T06:28:11;101269.50;;;0.71;83.56
40794;BME280;26502;51.886;15.604;2023-01-26T06:33:19;101269.04;;;0.63;83.56
40794;BME280;26502;51.886;15.604;2023-01-26T06:38:27;101260.91;;;0.59;83.56
40794;BME280;26502;51.886;15.604;2023-01-26T06:43:36;101261.64;;;0.50;83.62
40794;BME280;26502;51.886;15.604;2023-01-26T06:48:44;101260.44;;;0.52;83.62
40794;BME280;26502;51.886;15.604;2023-01-26T06:53:56;101264.27;;;0.51;83.74
40794;BME280;26502;51.886;15.604;2023-01-26T06:59:22;101272.42;;;0.66;84.04
40794;BME280;26502;51.886;15.604;2023-01-26T07:04:49;101274.99;;;0.74;83.71
40794;BME280;26502;51.886;15.604;2023-01-26T07:09:58;101269.16;;;0.81;83.81
40794;BME280;26502;51.886;15.604;2023-01-26T07:15:07;101263.64;;;0.86;83.78
40794;BME280;26502;51.886;15.604;2023-01-26T07:20:16;101256.20;;;0.70;83.52
40794;BME280;26502;51.886;15.604;2023-01-26T07:25:24;101255.98;;;0.67;83.46
40794;BME280;26502;51.886;15.604;2023-01-26T07:30:31;101250.34;;;0.55;83.43
40794;BME280;26502;51.886;15.604;2023-01-26T07:35:41;101254.63;;;0.40;83.53
40794;BME280;26502;51.886;15.604;2023-01-26T07:40:49;101251.24;;;0.46;83.88
40794;BME280;26502;51.886;15.604;2023-01-26T07:45:56;101259.00;;;0.49;83.83
40794;BME280;26502;51.886;15.604;2023-01-26T07:51:05;101267.60;;;0.33;83.64
40794;BME280;26502;51.886;15.604;2023-01-26T07:56:16;101266.05;;;0.25;83.84
40794;BME280;26502;51.886;15.604;2023-01-26T08:01:25;101269.11;;;0.28;83.81
40794;BME280;26502;51.886;15.604;2023-01-26T08:06:34;101268.70;;;0.35;83.97
40794;BME280;26502;51.886;15.604;2023-01-26T08:11:42;101265.46;;;0.31;83.87
40794;BME280;26502;51.886;15.604;2023-01-26T08:16:51;101263.70;;;0.20;83.85
40794;BME280;26502;51.886;15.604;2023-01-26T08:21:59;101264.73;;;0.19;84.04
40794;BME280;26502;51.886;15.604;2023-01-26T08:27:09;101262.31;;;0.12;83.83
40794;BME280;26502;51.886;15.604;2023-01-26T08:32:17;101261.75;;;0.10;83.95
40794;BME280;26502;51.886;15.604;2023-01-26T08:37:24;101263.30;;;0.09;84.21
40794;BME280;26502;51.886;15.604;2023-01-26T08:42:33;101269.55;;;0.07;84.12
40794;BME280;26502;51.886;15.604;2023-01-26T08:47:42;101268.63;;;0.05;84.15
40794;BME280;26502;51.886;15.604;2023-01-26T08:52:50;101267.06;;;0.05;84.21
40794;BME280;26502;51.886;15.604;2023-01-26T08:57:57;101263.70;;;0.11;84.39
40794;BME280;26502;51.886;15.604;2023-01-26T09:03:09;101273.52;;;0.23;84.58
40794;BME280;26502;51.886;15.604;2023-01-26T09:08:16;101279.89;;;0.36;84.59
40794;BME280;26502;51.886;15.604;2023-01-26T09:13:26;101280.11;;;0.48;84.47
40794;BME280;26502;51.886;15.604;2023-01-26T09:18:34;101282.86;;;0.54;84.52
40794;BME280;26502;51.886;15.604;2023-01-26T09:23:42;101287.32;;;0.60;84.52
40794;BME280;26502;51.886;15.604;2023-01-26T09:28:52;101279.55;;;0.65;84.28
40794;BME280;26502;51.886;15.604;2023-01-26T09:33:59;101273.83;;;0.68;84.33
40794;BME280;26502;51.886;15.604;2023-01-26T09:39:07;101276.79;;;0.77;84.26
40794;BME280;26502;51.886;15.604;2023-01-26T09:44:19;101279.86;;;0.73;84.08
40794;BME280;26502;51.886;15.604;2023-01-26T09:49:33;101280.29;;;0.67;83.96
40794;BME280;26502;51.886;15.604;2023-01-26T09:54:46;101269.03;;;0.63;84.05
40794;BME280;26502;51.886;15.604;2023-01-26T09:59:59;101267.46;;;0.73;84.32
40794;BME280;26502;51.886;15.604;2023-01-26T10:05:21;101267.09;;;0.72;84.33
40794;BME280;26502;51.886;15.604;2023-01-26T10:10:36;101264.73;;;0.89;84.41
40794;BME280;26502;51.886;15.604;2023-01-26T10:15:49;101259.92;;;0.83;83.88
40794;BME280;26502;51.886;15.604;2023-01-26T10:21:00;101251.69;;;0.71;83.75
40794;BME280;26502;51.886;15.604;2023-01-26T10:26:14;101250.06;;;0.59;84.00
40794;BME280;26502;51.886;15.604;2023-01-26T10:31:24;101248.89;;;0.61;84.00
40794;BME280;26502;51.886;15.604;2023-01-26T10:36:33;101248.61;;;0.75;84.47
40794;BME280;26502;51.886;15.604;2023-01-26T10:41:44;101240.13;;;0.81;84.20
40794;BME280;26502;51.886;15.604;2023-01-26T10:47:13;101229.20;;;0.86;84.34
40794;BME280;26502;51.886;15.604;2023-01-26T10:52:23;101229.03;;;1.09;84.52
40794;BME280;26502;51.886;15.604;2023-01-26T10:57:35;101222.57;;;1.09;83.94
40794;BME280;26502;51.886;15.604;2023-01-26T11:02:50;101218.81;;;1.05;83.99
40794;BME280;26502;51.886;15.604;2023-01-26T11:07:58;101214.10;;;1.05;84.11
40794;BME280;26502;51.886;15.604;2023-01-26T11:13:16;101217.49;;;1.10;83.90
40794;BME280;26502;51.886;15.604;2023-01-26T11:18:39;101212.23;;;1.08;83.93
40794;BME280;26502;51.886;15.604;2023-01-26T11:23:56;101201.47;;;1.02;83.86
40794;BME280;26502;51.886;15.604;2023-01-26T11:29:18;101196.02;;;1.12;84.12
40794;BME280;26502;51.886;15.604;2023-01-26T11:34:38;101194.40;;;1.22;83.97
40794;BME280;26502;51.886;15.604;2023-01-26T11:39:57;101188.94;;;1.31;83.78
40794;BME280;26502;51.886;15.604;2023-01-26T11:45:18;101182.20;;;1.39;83.52
40794;BME280;26502;51.886;15.604;2023-01-26T11:50:34;101176.91;;;1.36;83.56
40794;BME280;26502;51.886;15.604;2023-01-26T11:55:52;101174.16;;;1.26;83.47
40794;BME280;26502;51.886;15.604;2023-01-26T12:01:04;101169.50;;;1.32;83.50
40794;BME280;26502;51.886;15.604;2023-01-26T12:06:19;101163.05;;;1.46;83.85
40794;BME280;26502;51.886;15.604;2023-01-26T12:11:34;101155.96;;;1.53;83.62
40794;BME280;26502;51.886;15.604;2023-01-26T12:16:58;101146.39;;;1.57;83.49
40794;BME280;26502;51.886;15.604;2023-01-26T12:22:14;101139.61;;;1.62;83.63
40794;BME280;26502;51.886;15.604;2023-01-26T12:27:32;101134.01;;;1.62;83.53
40794;BME280;26502;51.886;15.604;2023-01-26T12:32:42;101133.23;;;1.55;83.46
40794;BME280;26502;51.886;15.604;2023-01-26T12:37:55;101127.52;;;1.46;83.06
40794;BME280;26502;51.886;15.604;2023-01-26T12:43:18;101125.21;;;1.43;83.15
40794;BME280;26502;51.886;15.604;2023-01-26T12:48:36;101120.35;;;1.46;82.95
40794;BME280;26502;51.886;15.604;2023-01-26T12:53:51;101118.77;;;1.48;83.20
40794;BME280;26502;51.886;15.604;2023-01-26T12:59:08;101112.73;;;1.53;83.15
40794;BME280;26502;51.886;15.604;2023-01-26T13:04:21;101115.41;;;1.59;83.05
40794;BME280;26502;51.886;15.604;2023-01-26T13:09:29;101112.98;;;1.59;83.08
40794;BME280;26502;51.886;15.604;2023-01-26T13:14:57;101116.80;;;1.43;82.45
40794;BME280;26502;51.886;15.604;2023-01-26T13:25:50;101123.00;;;1.49;82.85
40794;BME280;26502;51.886;15.604;2023-01-26T13:31:32;101128.66;;;1.53;82.72
40794;BME280;26502;51.886;15.604;2023-01-26T13:36:42;101128.84;;;1.54;82.58
40794;BME280;26502;51.886;15.604;2023-01-26T13:41:54;101130.49;;;1.46;82.57
40794;BME280;26502;51.886;15.604;2023-01-26T13:47:07;101129.77;;;1.44;82.90
40794;BME280;26502;51.886;15.604;2023-01-26T13:52:19;101122.35;;;1.38;82.73
40794;BME280;26502;51.886;15.604;2023-01-26T13:57:28;101120.27;;;1.40;82.76
40794;BME280;26502;51.886;15.604;2023-01-26T14:02:36;101120.77;;;1.38;82.69
40794;BME280;26502;51.886;15.604;2023-01-26T14:07:46;101122.37;;;1.39;82.76
40794;BME280;26502;51.886;15.604;2023-01-26T14:13:02;101117.65;;;1.41;82.78
40794;BME280;26502;51.886;15.604;2023-01-26T14:18:22;101115.91;;;1.41;82.95
40794;BME280;26502;51.886;15.604;2023-01-26T14:23:31;101115.77;;;1.44;82.63
40794;BME280;26502;51.886;15.604;2023-01-26T14:28:42;101113.04;;;1.48;82.74
40794;BME280;26502;51.886;15.604;2023-01-26T14:33:51;101113.23;;;1.51;83.01
40794;BME280;26502;51.886;15.604;2023-01-26T14:39:02;101117.98;;;1.52;82.85
40794;BME280;26502;51.886;15.604;2023-01-26T14:44:21;101123.23;;;1.53;82.69
40794;BME280;26502;51.886;15.604;2023-01-26T14:49:37;101123.36;;;1.49;82.45
40794;BME280;26502;51.886;15.604;2023-01-26T14:54:47;101131.97;;;1.38;82.27
40794;BME280;26502;51.886;15.604;2023-01-26T14:59:58;101138.04;;;1.33;82.43
40794;BME280;26502;51.886;15.604;2023-01-26T15:05:15;101137.73;;;1.23;82.30
40794;BME280;26502;51.886;15.604;2023-01-26T15:10:45;101135.49;;;1.13;82.65
40794;BME280;26502;51.886;15.604;2023-01-26T15:16:05;101135.41;;;1.06;82.24
40794;BME280;26502;51.886;15.604;2023-01-26T15:21:21;101136.51;;;1.10;82.33
40794;BME280;26502;51.886;15.604;2023-01-26T15:26:33;101133.91;;;1.12;82.73
40794;BME280;26502;51.886;15.604;2023-01-26T15:31:43;101130.87;;;1.20;82.81
40794;BME280;26502;51.886;15.604;2023-01-26T15:36:51;101126.21;;;1.25;82.61
40794;BME280;26502;51.886;15.604;2023-01-26T15:42:13;101123.80;;;1.28;82.88
40794;BME280;26502;51.886;15.604;2023-01-26T15:47:22;101125.19;;;1.28;82.49
40794;BME280;26502;51.886;15.604;2023-01-26T15:52:33;101126.70;;;1.36;83.24
40794;BME280;26502;51.886;15.604;2023-01-26T15:57:44;101123.35;;;1.49;83.32
40794;BME280;26502;51.886;15.604;2023-01-26T16:02:55;101130.13;;;1.60;83.24
40794;BME280;26502;51.886;15.604;2023-01-26T16:08:06;101135.93;;;1.62;83.08
40794;BME280;26502;51.886;15.604;2023-01-26T16:13:19;101136.05;;;1.58;82.38
40794;BME280;26502;51.886;15.604;2023-01-26T16:18:28;101137.11;;;1.29;82.25
40794;BME280;26502;51.886;15.604;2023-01-26T16:23:38;101141.96;;;1.26;82.63
40794;BME280;26502;51.886;15.604;2023-01-26T16:28:48;101139.20;;;1.43;82.80
40794;BME280;26502;51.886;15.604;2023-01-26T16:33:59;101139.52;;;1.41;82.72
40794;BME280;26502;51.886;15.604;2023-01-26T16:39:09;101140.52;;;1.34;82.58
40794;BME280;26502;51.886;15.604;2023-01-26T16:44:21;101134.41;;;1.38;83.12
40794;BME280;26502;51.886;15.604;2023-01-26T16:49:32;101135.80;;;1.52;82.89
40794;BME280;26502;51.886;15.604;2023-01-26T16:54:43;101132.65;;;1.51;82.68
40794;BME280;26502;51.886;15.604;2023-01-26T16:59:56;101131.21;;;1.32;82.41
40794;BME280;26502;51.886;15.604;2023-01-26T17:05:08;101125.54;;;1.41;83.05
40794;BME280;26502;51.886;15.604;2023-01-26T17:10:19;101122.15;;;1.50;82.92
40794;BME280;26502;51.886;15.604;2023-01-26T17:15:31;101121.60;;;1.64;82.97
40794;BME280;26502;51.886;15.604;2023-01-26T17:20:41;101123.62;;;1.57;82.65
40794;BME280;26502;51.886;15.604;2023-01-26T17:25:57;101125.85;;;1.52;82.77
40794;BME280;26502;51.886;15.604;2023-01-26T17:31:11;101132.73;;;1.57;82.91
40794;BME280;26502;51.886;15.604;2023-01-26T17:36:24;101138.53;;;1.60;82.78
40794;BME280;26502;51.886;15.604;2023-01-26T17:41:37;101138.08;;;1.65;82.80
40794;BME280;26502;51.886;15.604;2023-01-26T17:46:48;101144.04;;;1.66;82.78
40794;BME280;26502;51.886;15.604;2023-01-26T17:51:58;101148.18;;;1.61;82.86
40794;BME280;26502;51.886;15.604;2023-01-26T17:57:12;101152.16;;;1.57;82.69
40794;BME280;26502;51.886;15.604;2023-01-26T18:02:22;101161.45;;;1.59;82.65
40794;BME280;26502;51.886;15.604;2023-01-26T18:07:33;101160.52;;;1.52;82.48
40794;BME280;26502;51.886;15.604;2023-01-26T18:12:45;101160.75;;;1.44;82.33
40794;BME280;26502;51.886;15.604;2023-01-26T18:17:58;101164.96;;;1.32;82.35
40794;BME280;26502;51.886;15.604;2023-01-26T18:23:13;101167.45;;;1.21;82.19
40794;BME280;26502;51.886;15.604;2023-01-26T18:28:27;101170.27;;;1.10;82.35
40794;BME280;26502;51.886;15.604;2023-01-26T18:33:39;101173.55;;;1.07;82.58
40794;BME280;26502;51.886;15.604;2023-01-26T18:38:54;101180.24;;;1.10;82.47
40794;BME280;26502;51.886;15.604;2023-01-26T18:44:06;101179.45;;;1.04;82.35
40794;BME280;26502;51.886;15.604;2023-01-26T18:49:20;101184.09;;;1.10;82.63
40794;BME280;26502;51.886;15.604;2023-01-26T18:54:33;101180.02;;;1.08;82.48
40794;BME280;26502;51.886;15.604;2023-01-26T18:59:47;101173.95;;;0.98;82.32
40794;BME280;26502;51.886;15.604;2023-01-26T19:04:59;101172.15;;;0.95;82.58
40794;BME280;26502;51.886;15.604;2023-01-26T19:10:15;101174.57;;;0.93;82.58
40794;BME280;26502;51.886;15.604;2023-01-26T19:15:33;101175.77;;;0.92;82.49
40794;BME280;26502;51.886;15.604;2023-01-26T19:20:56;101170.23;;;0.82;82.30
40794;BME280;26502;51.886;15.604;2023-01-26T19:26:13;101173.30;;;0.79;82.73
40794;BME280;26502;51.886;15.604;2023-01-26T19:31:28;101174.82;;;0.85;82.60
40794;BME280;26502;51.886;15.604;2023-01-26T19:36:45;101172.52;;;0.96;82.62
40794;BME280;26502;51.886;15.604;2023-01-26T19:42:03;101177.13;;;0.89;82.41
40794;BME280;26502;51.886;15.604;2023-01-26T19:47:18;101173.51;;;0.92;82.64
40794;BME280;26502;51.886;15.604;2023-01-26T19:52:34;101171.92;;;0.92;82.49
40794;BME280;26502;51.886;15.604;2023-01-26T19:57:48;101168.23;;;0.91;82.75
40794;BME280;26502;51.886;15.604;2023-01-26T20:03:07;101171.36;;;0.90;82.77
40794;BME280;26502;51.886;15.604;2023-01-26T20:08:22;101174.30;;;0.87;82.83
40794;BME280;26502;51.886;15.604;2023-01-26T20:13:36;101175.16;;;0.85;82.92
40794;BME280;26502;51.886;15.604;2023-01-26T20:18:51;101173.62;;;0.76;82.77
40794;BME280;26502;51.886;15.604;2023-01-26T20:24:07;101171.04;;;0.79;82.85
40794;BME280;26502;51.886;15.604;2023-01-26T20:29:25;101174.39;;;0.80;82.74
40794;BME280;26502;51.886;15.604;2023-01-26T20:34:42;101173.88;;;0.81;82.84
40794;BME280;26502;51.886;15.604;2023-01-26T20:39:56;101176.51;;;0.82;82.95
40794;BME280;26502;51.886;15.604;2023-01-26T20:45:14;101176.51;;;0.82;82.87
40794;BME280;26502;51.886;15.604;2023-01-26T20:50:30;101180.09;;;0.88;82.94
40794;BME280;26502;51.886;15.604;2023-01-26T20:55:54;101175.44;;;0.93;82.97
40794;BME280;26502;51.886;15.604;2023-01-26T21:01:07;101177.73;;;0.94;83.05
40794;BME280;26502;51.886;15.604;2023-01-26T21:06:27;101178.75;;;0.92;82.63
40794;BME280;26502;51.886;15.604;2023-01-26T21:11:43;101185.77;;;0.93;82.73
40794;BME280;26502;51.886;15.604;2023-01-26T21:16:56;101183.52;;;0.95;82.89
40794;BME280;26502;51.886;15.604;2023-01-26T21:22:09;101184.64;;;0.89;82.39
40794;BME280;26502;51.886;15.604;2023-01-26T21:27:21;101190.58;;;0.88;82.48
40794;BME280;26502;51.886;15.604;2023-01-26T21:32:32;101185.86;;;0.88;82.91
40794;BME280;26502;51.886;15.604;2023-01-26T21:37:43;101187.53;;;0.95;82.85
40794;BME280;26502;51.886;15.604;2023-01-26T21:42:55;101186.46;;;0.94;82.61
40794;BME280;26502;51.886;15.604;2023-01-26T21:48:07;101183.81;;;0.80;82.29
40794;BME280;26502;51.886;15.604;2023-01-26T21:53:39;101186.58;;;0.78;82.64
40794;BME280;26502;51.886;15.604;2023-01-26T21:58:50;101186.16;;;0.74;82.33
40794;BME280;26502;51.886;15.604;2023-01-26T22:04:14;101188.48;;;0.76;82.75
40794;BME280;26502;51.886;15.604;2023-01-26T22:09:27;101183.91;;;0.86;83.10
40794;BME280;26502;51.886;15.604;2023-01-26T22:14:38;101184.53;;;0.93;82.90
40794;BME280;26502;51.886;15.604;2023-01-26T22:19:50;101184.91;;;0.94;82.87
40794;BME280;26502;51.886;15.604;2023-01-26T22:25:03;101185.27;;;0.94;82.93
40794;BME280;26502;51.886;15.604;2023-01-26T22:30:17;101184.33;;;0.91;82.73
40794;BME280;26502;51.886;15.604;2023-01-26T22:35:31;101177.23;;;0.84;82.84
40794;BME280;26502;51.886;15.604;2023-01-26T22:40:41;101177.14;;;0.78;82.45
40794;BME280;26502;51.886;15.604;2023-01-26T22:45:52;101178.88;;;0.77;82.65
40794;BME280;26502;51.886;15.604;2023-01-26T22:51:09;101175.34;;;0.75;82.72
40794;BME280;26502;51.886;15.604;2023-01-26T22:56:22;101176.82;;;0.68;82.89
40794;BME280;26502;51.886;15.604;2023-01-26T23:01:34;101178.11;;;0.62;82.89
40794;BME280;26502;51.886;15.604;2023-01-26T23:06:46;101182.97;;;0.70;82.91
40794;BME280;26502;51.886;15.604;2023-01-26T23:11:56;101178.92;;;0.79;83.03
40794;BME280;26502;51.886;15.604;2023-01-26T23:17:08;101177.32;;;0.78;82.83
40794;BME280;26502;51.886;15.604;2023-01-26T23:22:20;101175.11;;;0.70;82.58
40794;BME280;26502;51.886;15.604;2023-01-26T23:27:30;101171.25;;;0.59;82.44
40794;BME280;26502;51.886;15.604;2023-01-26T23:32:40;101168.67;;;0.61;82.77
40794;BME280;26502;51.886;15.604;2023-01-26T23:37:51;101171.22;;;0.57;82.88
40794;BME280;26502;51.886;15.604;2023-01-26T23:43:02;101162.41;;;0.63;82.93
40794;BME280;26502;51.886;15.604;2023-01-26T23:48:13;101163.16;;;0.67;82.88
40794;BME280;26502;51.886;15.604;2023-01-26T23:53:26;101160.45;;;0.73;82.88
40794;BME280;26502;51.886;15.604;2023-01-26T23:58:39;101159.05;;;0.73;82.81
